sensor_id;sensor_type;location;lat;lon;timestamp;pressure;altitude;pressure_sealevel;temperature;humidity
84022;BME280;74108;48.636;9.492;2024-01-15T00:00:15;96782.31;;;-1.77;76.24
84022;BME280;74108;48.636;9.492;2024-01-15T00:02:42;96766.69;;;-1.88;75.41
84022;BME280;74108;48.636;9.492;2024-01-15T00:05:17;96757.22;;;-1.81;75.78
84022;BME280;74108;48.636;9.492;2024-01-15T00:07:57;96754.28;;;-1.72;75.12
84022;BME280;74108;48.636;9.492;2024-01-15T00:10:40;96740.28;;;-1.76;75.17
84022;BME280;74108;48.636;9.492;2024-01-15T00:13:06;96741.66;;;-1.73;75.51
84022;BME280;74108;48.636;9.492;2024-01-15T00:15:32;96743.81;;;-1.70;75.34
84022;BME280;74108;48.636;9.492;2024-01-15T00:17:58;96728.84;;;-1.67;74.97
84022;BME280;74108;48.636;9.492;2024-01-15T00:20:26;96734.94;;;-1.74;74.74
84022;BME280;74108;48.636;9.492;2024-01-15T00:22:52;96730.00;;;-1.69;74.07
84022;BME280;74108;48.636;9.492;2024-01-15T00:25:38;96758.47;;;-1.45;73.94
84022;BME280;74108;48.636;9.492;2024-01-15T00:28:09;96735.56;;;-1.46;74.51
84022;BME280;74108;48.636;9.492;2024-01-15T00:30:35;96728.44;;;-1.37;73.33
84022;BME280;74108;48.636;9.492;2024-01-15T00:33:01;96732.78;;;-1.31;73.13
84022;BME280;74108;48.636;9.492;2024-01-15T00:35:27;96742.22;;;-1.06;72.44
84022;BME280;74108;48.636;9.492;2024-01-15T00:37:52;96725.44;;;-1.15;72.77
84022;BME280;74108;48.636;9.492;2024-01-15T00:40:21;96737.47;;;-0.89;72.04
84022;BME280;74108;48.636;9.492;2024-01-15T00:42:56;96716.34;;;-0.98;72.55
84022;BME280;74108;48.636;9.492;2024-01-15T00:45:26;96721.47;;;-0.91;72.39
84022;BME280;74108;48.636;9.492;2024-01-15T00:47:53;96725.59;;;-0.84;73.00
84022;BME280;74108;48.636;9.492;2024-01-15T00:50:29;96723.22;;;-0.85;72.52
84022;BME280;74108;48.636;9.492;2024-01-15T00:52:54;96735.50;;;-0.81;72.27
84022;BME280;74108;48.636;9.492;2024-01-15T00:55:20;96745.16;;;-0.69;72.14
84022;BME280;74108;48.636;9.492;2024-01-15T00:57:45;96740.78;;;-0.69;71.92
84022;BME280;74108;48.636;9.492;2024-01-15T01:00:11;96746.88;;;-0.57;71.25
84022;BME280;74108;48.636;9.492;2024-01-15T01:02:36;96750.63;;;-0.59;71.35
84022;BME280;74108;48.636;9.492;2024-01-15T01:05:02;96752.22;;;-0.52;71.14
84022;BME280;74108;48.636;9.492;2024-01-15T01:07:31;96754.19;;;-0.54;71.13
84022;BME280;74108;48.636;9.492;2024-01-15T01:09:56;96757.34;;;-0.52;71.23
84022;BME280;74108;48.636;9.492;2024-01-15T01:12:22;96758.94;;;-0.51;70.93
84022;BME280;74108;48.636;9.492;2024-01-15T01:14:47;96749.44;;;-0.44;71.23
84022;BME280;74108;48.636;9.492;2024-01-15T01:17:15;96749.41;;;-0.50;71.55
84022;BME280;74108;48.636;9.492;2024-01-15T01:19:41;96750.81;;;-0.48;71.24
84022;BME280;74108;48.636;9.492;2024-01-15T01:22:06;96741.53;;;-0.49;71.08
84022;BME280;74108;48.636;9.492;2024-01-15T01:24:32;96741.91;;;-0.52;71.47
84022;BME280;74108;48.636;9.492;2024-01-15T01:26:57;96750.41;;;-0.45;70.90
84022;BME280;74108;48.636;9.492;2024-01-15T01:29:22;96739.53;;;-0.47;71.43
84022;BME280;74108;48.636;9.492;2024-01-15T01:31:48;96752.97;;;-0.45;71.50
84022;BME280;74108;48.636;9.492;2024-01-15T01:34:15;96755.53;;;-0.38;71.30
84022;BME280;74108;48.636;9.492;2024-01-15T01:36:43;96754.38;;;-0.49;71.42
84022;BME280;74108;48.636;9.492;2024-01-15T01:39:10;96751.38;;;-0.46;72.02
84022;BME280;74108;48.636;9.492;2024-01-15T01:41:35;96752.97;;;-0.45;71.32
84022;BME280;74108;48.636;9.492;2024-01-15T01:44:01;96749.78;;;-0.40;71.27
84022;BME280;74108;48.636;9.492;2024-01-15T01:46:27;96750.59;;;-0.40;71.88
84022;BME280;74108;48.636;9.492;2024-01-15T01:48:54;96747.63;;;-0.43;71.50
84022;BME280;74108;48.636;9.492;2024-01-15T01:51:22;96746.44;;;-0.47;71.69
84022;BME280;74108;48.636;9.492;2024-01-15T01:53:48;96739.91;;;-0.43;71.85
84022;BME280;74108;48.636;9.492;2024-01-15T01:56:14;96744.03;;;-0.36;70.94
84022;BME280;74108;48.636;9.492;2024-01-15T01:58:40;96745.03;;;-0.37;70.65
84022;BME280;74108;48.636;9.492;2024-01-15T02:01:06;96739.28;;;-0.39;71.57
84022;BME280;74108;48.636;9.492;2024-01-15T02:03:32;96747.22;;;-0.40;71.53
84022;BME280;74108;48.636;9.492;2024-01-15T02:05:59;96748.38;;;-0.36;71.75
84022;BME280;74108;48.636;9.492;2024-01-15T02:08:25;96743.63;;;-0.33;71.12
84022;BME280;74108;48.636;9.492;2024-01-15T02:10:51;96744.00;;;-0.29;70.90
84022;BME280;74108;48.636;9.492;2024-01-15T02:13:17;96744.59;;;-0.27;71.89
84022;BME280;74108;48.636;9.492;2024-01-15T02:15:43;96736.06;;;-0.21;71.16
84022;BME280;74108;48.636;9.492;2024-01-15T02:18:08;96741.22;;;-0.21;70.84
84022;BME280;74108;48.636;9.492;2024-01-15T02:20:34;96735.06;;;-0.20;70.61
84022;BME280;74108;48.636;9.492;2024-01-15T02:23:12;96733.84;;;-0.18;70.81
84022;BME280;74108;48.636;9.492;2024-01-15T02:25:44;96737.00;;;-0.16;70.91
84022;BME280;74108;48.636;9.492;2024-01-15T02:28:12;96735.03;;;-0.14;71.33
84022;BME280;74108;48.636;9.492;2024-01-15T02:30:38;96732.84;;;-0.10;71.13
84022;BME280;74108;48.636;9.492;2024-01-15T02:33:05;96735.84;;;-0.20;71.61
84022;BME280;74108;48.636;9.492;2024-01-15T02:35:30;96738.78;;;-0.10;71.39
84022;BME280;74108;48.636;9.492;2024-01-15T02:37:55;96734.06;;;-0.19;71.49
84022;BME280;74108;48.636;9.492;2024-01-15T02:40:21;96730.31;;;-0.17;71.31
84022;BME280;74108;48.636;9.492;2024-01-15T02:42:46;96728.13;;;-0.20;70.98
84022;BME280;74108;48.636;9.492;2024-01-15T02:45:12;96727.31;;;-0.14;71.71
84022;BME280;74108;48.636;9.492;2024-01-15T02:47:37;96734.22;;;-0.08;71.51
84022;BME280;74108;48.636;9.492;2024-01-15T02:50:02;96732.25;;;-0.12;71.47
84022;BME280;74108;48.636;9.492;2024-01-15T02:52:28;96732.09;;;-0.17;71.64
84022;BME280;74108;48.636;9.492;2024-01-15T02:54:53;96735.22;;;-0.15;71.54
84022;BME280;74108;48.636;9.492;2024-01-15T02:57:19;96728.72;;;-0.18;72.47
84022;BME280;74108;48.636;9.492;2024-01-15T02:59:44;96720.19;;;-0.12;71.45
84022;BME280;74108;48.636;9.492;2024-01-15T03:02:09;96726.72;;;-0.16;71.37
84022;BME280;74108;48.636;9.492;2024-01-15T03:04:35;96726.31;;;-0.13;72.22
84022;BME280;74108;48.636;9.492;2024-01-15T03:07:00;96724.16;;;-0.16;72.24
84022;BME280;74108;48.636;9.492;2024-01-15T03:09:26;96721.16;;;-0.13;71.81
84022;BME280;74108;48.636;9.492;2024-01-15T03:11:51;96718.97;;;-0.09;71.56
84022;BME280;74108;48.636;9.492;2024-01-15T03:14:16;96714.78;;;-0.04;71.13
84022;BME280;74108;48.636;9.492;2024-01-15T03:16:42;96719.34;;;-0.06;71.45
84022;BME280;74108;48.636;9.492;2024-01-15T03:19:07;96709.91;;;-0.12;71.64
84022;BME280;74108;48.636;9.492;2024-01-15T03:21:32;96709.69;;;-0.10;71.89
84022;BME280;74108;48.636;9.492;2024-01-15T03:23:58;96715.03;;;-0.12;71.77
84022;BME280;74108;48.636;9.492;2024-01-15T03:26:23;96709.28;;;-0.07;71.64
84022;BME280;74108;48.636;9.492;2024-01-15T03:28:49;96700.59;;;-0.13;71.20
84022;BME280;74108;48.636;9.492;2024-01-15T03:31:14;96701.75;;;-0.09;71.70
84022;BME280;74108;48.636;9.492;2024-01-15T03:33:39;96698.38;;;-0.09;71.75
84022;BME280;74108;48.636;9.492;2024-01-15T03:36:05;96701.97;;;-0.10;71.82
84022;BME280;74108;48.636;9.492;2024-01-15T03:38:31;96701.56;;;-0.07;71.49
84022;BME280;74108;48.636;9.492;2024-01-15T03:40:56;96699.72;;;0.00;71.43
84022;BME280;74108;48.636;9.492;2024-01-15T03:43:21;96700.94;;;-0.09;72.15
84022;BME280;74108;48.636;9.492;2024-01-15T03:45:47;96692.41;;;-0.03;71.42
84022;BME280;74108;48.636;9.492;2024-01-15T03:48:12;96686.72;;;-0.12;72.03
84022;BME280;74108;48.636;9.492;2024-01-15T03:50:37;96689.84;;;-0.03;71.22
84022;BME280;74108;48.636;9.492;2024-01-15T03:53:03;96695.00;;;-0.03;71.47
84022;BME280;74108;48.636;9.492;2024-01-15T03:55:29;96690.03;;;-0.05;71.60
84022;BME280;74108;48.636;9.492;2024-01-15T03:57:54;96679.38;;;-0.08;71.39
84022;BME280;74108;48.636;9.492;2024-01-15T04:00:20;96676.56;;;0.00;71.41
84022;BME280;74108;48.636;9.492;2024-01-15T04:02:45;96669.88;;;-0.08;71.99
84022;BME280;74108;48.636;9.492;2024-01-15T04:05:11;96669.88;;;-0.08;71.95
84022;BME280;74108;48.636;9.492;2024-01-15T04:07:36;96677.16;;;-0.05;71.83
84022;BME280;74108;48.636;9.492;2024-01-15T04:10:01;96676.97;;;-0.03;72.05
84022;BME280;74108;48.636;9.492;2024-01-15T04:12:28;96670.44;;;-0.06;71.66
84022;BME280;74108;48.636;9.492;2024-01-15T04:14:53;96666.47;;;-0.02;71.21
84022;BME280;74108;48.636;9.492;2024-01-15T04:17:19;96661.72;;;-0.05;72.17
84022;BME280;74108;48.636;9.492;2024-01-15T04:19:44;96660.75;;;-0.04;71.73
84022;BME280;74108;48.636;9.492;2024-01-15T04:22:10;96652.47;;;-0.12;72.31
84022;BME280;74108;48.636;9.492;2024-01-15T04:24:35;96665.34;;;-0.12;72.77
84022;BME280;74108;48.636;9.492;2024-01-15T04:27:01;96663.13;;;-0.09;72.26
84022;BME280;74108;48.636;9.492;2024-01-15T04:29:26;96661.13;;;0.00;71.74
84022;BME280;74108;48.636;9.492;2024-01-15T04:31:53;96660.09;;;0.01;72.03
84022;BME280;74108;48.636;9.492;2024-01-15T04:34:18;96659.75;;;-0.03;72.37
84022;BME280;74108;48.636;9.492;2024-01-15T04:36:43;96655.59;;;-0.04;72.53
84022;BME280;74108;48.636;9.492;2024-01-15T04:39:09;96653.41;;;-0.07;72.53
84022;BME280;74108;48.636;9.492;2024-01-15T04:41:34;96647.28;;;-0.06;73.00
84022;BME280;74108;48.636;9.492;2024-01-15T04:43:59;96658.31;;;0.02;72.84
84022;BME280;74108;48.636;9.492;2024-01-15T04:46:26;96647.75;;;0.10;72.07
84022;BME280;74108;48.636;9.492;2024-01-15T04:48:52;96662.22;;;0.11;72.61
84022;BME280;74108;48.636;9.492;2024-01-15T04:51:17;96661.19;;;0.18;72.47
84022;BME280;74108;48.636;9.492;2024-01-15T04:53:42;96654.44;;;0.17;72.41
84022;BME280;74108;48.636;9.492;2024-01-15T04:56:08;96658.22;;;0.15;72.70
84022;BME280;74108;48.636;9.492;2024-01-15T04:58:33;96651.88;;;0.17;72.90
84022;BME280;74108;48.636;9.492;2024-01-15T05:00:58;96647.88;;;0.21;72.28
84022;BME280;74108;48.636;9.492;2024-01-15T05:03:24;96651.09;;;0.17;72.86
84022;BME280;74108;48.636;9.492;2024-01-15T05:05:49;96649.31;;;0.17;72.07
84022;BME280;74108;48.636;9.492;2024-01-15T05:08:14;96652.09;;;0.16;72.53
84022;BME280;74108;48.636;9.492;2024-01-15T05:10:40;96646.50;;;0.19;72.13
84022;BME280;74108;48.636;9.492;2024-01-15T05:13:05;96643.41;;;0.10;72.85
84022;BME280;74108;48.636;9.492;2024-01-15T05:15:30;96654.72;;;0.09;72.35
84022;BME280;74108;48.636;9.492;2024-01-15T05:17:56;96649.34;;;0.11;72.52
84022;BME280;74108;48.636;9.492;2024-01-15T05:20:21;96643.34;;;0.17;72.57
84022;BME280;74108;48.636;9.492;2024-01-15T05:22:47;96645.75;;;0.12;72.92
84022;BME280;74108;48.636;9.492;2024-01-15T05:25:12;96638.44;;;0.15;73.16
84022;BME280;74108;48.636;9.492;2024-01-15T05:27:38;96638.31;;;0.04;73.43
84022;BME280;74108;48.636;9.492;2024-01-15T05:30:03;96631.13;;;0.12;73.43
84022;BME280;74108;48.636;9.492;2024-01-15T05:32:29;96644.84;;;0.06;74.03
84022;BME280;74108;48.636;9.492;2024-01-15T05:34:54;96645.63;;;0.07;74.25
84022;BME280;74108;48.636;9.492;2024-01-15T05:37:20;96643.25;;;0.05;74.02
84022;BME280;74108;48.636;9.492;2024-01-15T05:39:45;96632.75;;;0.07;74.40
84022;BME280;74108;48.636;9.492;2024-01-15T05:42:10;96637.91;;;0.07;74.11
84022;BME280;74108;48.636;9.492;2024-01-15T05:44:36;96634.53;;;0.06;74.53
84022;BME280;74108;48.636;9.492;2024-01-15T05:47:02;96633.75;;;0.06;74.41
84022;BME280;74108;48.636;9.492;2024-01-15T05:49:29;96627.78;;;0.05;74.40
84022;BME280;74108;48.636;9.492;2024-01-15T05:51:54;96612.00;;;0.02;74.03
84022;BME280;74108;48.636;9.492;2024-01-15T05:54:20;96614.94;;;0.05;74.40
84022;BME280;74108;48.636;9.492;2024-01-15T05:56:45;96620.88;;;0.06;73.91
84022;BME280;74108;48.636;9.492;2024-01-15T05:59:10;96601.28;;;0.05;74.20
84022;BME280;74108;48.636;9.492;2024-01-15T06:01:36;96607.66;;;0.02;74.04
84022;BME280;74108;48.636;9.492;2024-01-15T06:04:01;96611.19;;;0.01;74.20
84022;BME280;74108;48.636;9.492;2024-01-15T06:06:27;96620.47;;;0.09;74.38
84022;BME280;74108;48.636;9.492;2024-01-15T06:08:52;96625.38;;;0.10;74.25
84022;BME280;74108;48.636;9.492;2024-01-15T06:11:18;96618.47;;;0.11;74.37
84022;BME280;74108;48.636;9.492;2024-01-15T06:13:43;96619.59;;;0.15;74.06
84022;BME280;74108;48.636;9.492;2024-01-15T06:16:15;96620.81;;;0.12;73.96
84022;BME280;74108;48.636;9.492;2024-01-15T06:18:45;96609.16;;;0.10;73.49
84022;BME280;74108;48.636;9.492;2024-01-15T06:21:10;96612.47;;;0.17;73.40
84022;BME280;74108;48.636;9.492;2024-01-15T06:23:38;96614.63;;;0.20;72.84
84022;BME280;74108;48.636;9.492;2024-01-15T06:26:04;96602.59;;;0.14;73.32
84022;BME280;74108;48.636;9.492;2024-01-15T06:28:29;96609.88;;;0.17;73.40
84022;BME280;74108;48.636;9.492;2024-01-15T06:30:55;96614.00;;;0.24;73.27
84022;BME280;74108;48.636;9.492;2024-01-15T06:33:20;96624.50;;;0.23;73.39
84022;BME280;74108;48.636;9.492;2024-01-15T06:35:45;96615.78;;;0.24;73.19
84022;BME280;74108;48.636;9.492;2024-01-15T06:38:11;96628.28;;;0.20;73.41
84022;BME280;74108;48.636;9.492;2024-01-15T06:40:36;96614.84;;;0.18;73.98
84022;BME280;74108;48.636;9.492;2024-01-15T06:43:02;96619.03;;;0.13;73.94
84022;BME280;74108;48.636;9.492;2024-01-15T06:45:27;96625.34;;;0.17;73.51
84022;BME280;74108;48.636;9.492;2024-01-15T06:47:53;96620.75;;;0.19;73.56
84022;BME280;74108;48.636;9.492;2024-01-15T06:50:18;96618.97;;;0.19;73.19
84022;BME280;74108;48.636;9.492;2024-01-15T06:52:43;96612.06;;;0.20;73.87
84022;BME280;74108;48.636;9.492;2024-01-15T06:55:09;96617.34;;;0.25;73.20
84022;BME280;74108;48.636;9.492;2024-01-15T06:57:34;96608.03;;;0.24;72.91
84022;BME280;74108;48.636;9.492;2024-01-15T07:00:00;96614.22;;;0.23;73.20
84022;BME280;74108;48.636;9.492;2024-01-15T07:02:27;96612.84;;;0.20;72.79
84022;BME280;74108;48.636;9.492;2024-01-15T07:04:52;96608.03;;;0.24;72.62
84022;BME280;74108;48.636;9.492;2024-01-15T07:07:18;96603.69;;;0.24;72.25
84022;BME280;74108;48.636;9.492;2024-01-15T07:09:46;96617.94;;;0.27;72.60
84022;BME280;74108;48.636;9.492;2024-01-15T07:12:12;96605.41;;;0.30;72.42
84022;BME280;74108;48.636;9.492;2024-01-15T07:14:37;96609.16;;;0.34;71.81
84022;BME280;74108;48.636;9.492;2024-01-15T07:17:03;96610.94;;;0.34;71.66
84022;BME280;74108;48.636;9.492;2024-01-15T07:19:28;96598.28;;;0.32;71.12
84022;BME280;74108;48.636;9.492;2024-01-15T07:21:53;96594.63;;;0.40;71.39
84022;BME280;74108;48.636;9.492;2024-01-15T07:24:19;96599.78;;;0.40;70.76
84022;BME280;74108;48.636;9.492;2024-01-15T07:26:44;96606.53;;;0.41;70.86
84022;BME280;74108;48.636;9.492;2024-01-15T07:29:09;96598.41;;;0.62;69.96
84022;BME280;74108;48.636;9.492;2024-01-15T07:31:35;96594.66;;;0.58;69.32
84022;BME280;74108;48.636;9.492;2024-01-15T07:34:00;96593.56;;;0.47;69.79
84022;BME280;74108;48.636;9.492;2024-01-15T07:36:25;96589.56;;;0.51;69.12
84022;BME280;74108;48.636;9.492;2024-01-15T07:38:51;96598.25;;;0.57;69.39
84022;BME280;74108;48.636;9.492;2024-01-15T07:41:16;96595.28;;;0.53;69.08
84022;BME280;74108;48.636;9.492;2024-01-15T07:43:41;96592.13;;;0.51;68.93
84022;BME280;74108;48.636;9.492;2024-01-15T07:46:07;96594.53;;;0.53;68.74
84022;BME280;74108;48.636;9.492;2024-01-15T07:48:32;96601.53;;;0.64;68.40
84022;BME280;74108;48.636;9.492;2024-01-15T07:50:58;96599.22;;;0.56;68.28
84022;BME280;74108;48.636;9.492;2024-01-15T07:53:23;96597.38;;;0.63;67.47
84022;BME280;74108;48.636;9.492;2024-01-15T07:55:49;96606.75;;;0.57;66.75
84022;BME280;74108;48.636;9.492;2024-01-15T07:58:14;96608.63;;;0.68;66.90
84022;BME280;74108;48.636;9.492;2024-01-15T08:00:39;96603.25;;;0.70;65.99
84022;BME280;74108;48.636;9.492;2024-01-15T08:03:05;96592.38;;;0.68;66.33
84022;BME280;74108;48.636;9.492;2024-01-15T08:05:32;96587.78;;;0.88;66.08
84022;BME280;74108;48.636;9.492;2024-01-15T08:07:57;96583.56;;;0.94;64.95
84022;BME280;74108;48.636;9.492;2024-01-15T08:10:23;96586.72;;;0.96;65.38
84022;BME280;74108;48.636;9.492;2024-01-15T08:12:48;96587.38;;;0.91;65.15
84022;BME280;74108;48.636;9.492;2024-01-15T08:15:13;96590.75;;;0.92;64.90
84022;BME280;74108;48.636;9.492;2024-01-15T08:17:39;96588.72;;;0.94;64.75
84022;BME280;74108;48.636;9.492;2024-01-15T08:20:04;96592.34;;;1.04;64.84
84022;BME280;74108;48.636;9.492;2024-01-15T08:22:30;96603.03;;;1.08;64.03
84022;BME280;74108;48.636;9.492;2024-01-15T08:24:57;96607.75;;;1.11;63.80
84022;BME280;74108;48.636;9.492;2024-01-15T08:27:22;96608.19;;;1.08;64.32
84022;BME280;74108;48.636;9.492;2024-01-15T08:29:47;96600.88;;;1.05;63.79
84022;BME280;74108;48.636;9.492;2024-01-15T08:32:13;96604.53;;;1.15;64.03
84022;BME280;74108;48.636;9.492;2024-01-15T08:34:40;96602.16;;;1.14;63.98
84022;BME280;74108;48.636;9.492;2024-01-15T08:37:06;96594.75;;;1.06;63.67
84022;BME280;74108;48.636;9.492;2024-01-15T08:39:31;96597.00;;;1.14;63.73
84022;BME280;74108;48.636;9.492;2024-01-15T08:41:57;96604.47;;;1.04;64.49
84022;BME280;74108;48.636;9.492;2024-01-15T08:44:22;96599.25;;;1.10;64.58
84022;BME280;74108;48.636;9.492;2024-01-15T08:46:47;96599.44;;;1.09;63.98
84022;BME280;74108;48.636;9.492;2024-01-15T08:49:13;96593.13;;;1.23;63.67
84022;BME280;74108;48.636;9.492;2024-01-15T08:51:38;96607.16;;;1.27;62.86
84022;BME280;74108;48.636;9.492;2024-01-15T08:54:04;96608.88;;;1.33;62.87
84022;BME280;74108;48.636;9.492;2024-01-15T08:56:30;96607.72;;;1.47;62.32
84022;BME280;74108;48.636;9.492;2024-01-15T08:58:55;96608.84;;;1.51;62.53
84022;BME280;74108;48.636;9.492;2024-01-15T09:01:21;96608.69;;;1.46;62.79
84022;BME280;74108;48.636;9.492;2024-01-15T09:03:46;96606.97;;;1.58;61.90
84022;BME280;74108;48.636;9.492;2024-01-15T09:06:13;96615.56;;;1.52;62.41
84022;BME280;74108;48.636;9.492;2024-01-15T09:08:38;96608.19;;;1.56;61.80
84022;BME280;74108;48.636;9.492;2024-01-15T09:11:04;96612.31;;;1.57;61.74
84022;BME280;74108;48.636;9.492;2024-01-15T09:13:29;96609.34;;;1.71;61.45
84022;BME280;74108;48.636;9.492;2024-01-15T09:15:56;96607.53;;;1.60;61.62
84022;BME280;74108;48.636;9.492;2024-01-15T09:18:21;96618.03;;;1.77;61.73
84022;BME280;74108;48.636;9.492;2024-01-15T09:20:46;96617.53;;;1.68;61.57
84022;BME280;74108;48.636;9.492;2024-01-15T09:23:12;96608.88;;;1.63;61.67
84022;BME280;74108;48.636;9.492;2024-01-15T09:25:37;96611.75;;;1.55;62.45
84022;BME280;74108;48.636;9.492;2024-01-15T09:28:02;96608.78;;;1.69;62.24
84022;BME280;74108;48.636;9.492;2024-01-15T09:30:29;96598.78;;;1.73;61.99
84022;BME280;74108;48.636;9.492;2024-01-15T09:32:55;96592.91;;;1.84;63.08
84022;BME280;74108;48.636;9.492;2024-01-15T09:35:20;96590.63;;;1.76;61.78
84022;BME280;74108;48.636;9.492;2024-01-15T09:37:45;96583.94;;;1.57;62.28
84022;BME280;74108;48.636;9.492;2024-01-15T09:40:14;96577.22;;;1.56;62.55
84022;BME280;74108;48.636;9.492;2024-01-15T09:42:41;96579.56;;;1.57;62.41
84022;BME280;74108;48.636;9.492;2024-01-15T09:45:07;96572.75;;;1.63;62.36
84022;BME280;74108;48.636;9.492;2024-01-15T09:47:34;96570.97;;;1.63;61.82
84022;BME280;74108;48.636;9.492;2024-01-15T09:50:00;96575.13;;;1.76;62.56
84022;BME280;74108;48.636;9.492;2024-01-15T09:52:27;96566.81;;;1.74;61.51
84022;BME280;74108;48.636;9.492;2024-01-15T09:54:53;96562.91;;;1.83;61.07
84022;BME280;74108;48.636;9.492;2024-01-15T09:57:19;96557.63;;;1.78;61.38
84022;BME280;74108;48.636;9.492;2024-01-15T09:59:46;96552.47;;;1.78;60.81
84022;BME280;74108;48.636;9.492;2024-01-15T10:02:13;96545.19;;;1.86;60.49
84022;BME280;74108;48.636;9.492;2024-01-15T10:04:42;96544.84;;;1.94;60.84
84022;BME280;74108;48.636;9.492;2024-01-15T10:07:08;96553.63;;;1.93;60.32
84022;BME280;74108;48.636;9.492;2024-01-15T10:09:35;96543.97;;;2.12;58.69
84022;BME280;74108;48.636;9.492;2024-01-15T10:12:01;96535.66;;;2.10;59.33
84022;BME280;74108;48.636;9.492;2024-01-15T10:14:26;96534.97;;;2.14;59.25
84022;BME280;74108;48.636;9.492;2024-01-15T10:16:51;96532.50;;;2.31;59.27
84022;BME280;74108;48.636;9.492;2024-01-15T10:19:17;96533.75;;;2.29;58.16
84022;BME280;74108;48.636;9.492;2024-01-15T10:21:42;96535.88;;;2.32;58.18
84022;BME280;74108;48.636;9.492;2024-01-15T10:24:07;96531.41;;;2.16;58.84
84022;BME280;74108;48.636;9.492;2024-01-15T10:26:33;96525.44;;;2.03;58.97
84022;BME280;74108;48.636;9.492;2024-01-15T10:28:59;96515.22;;;2.20;59.47
84022;BME280;74108;48.636;9.492;2024-01-15T10:31:26;96510.97;;;2.14;59.35
84022;BME280;74108;48.636;9.492;2024-01-15T10:33:52;96514.31;;;2.26;58.20
84022;BME280;74108;48.636;9.492;2024-01-15T10:36:17;96514.41;;;2.31;58.34
84022;BME280;74108;48.636;9.492;2024-01-15T10:38:44;96508.13;;;2.27;58.42
84022;BME280;74108;48.636;9.492;2024-01-15T10:41:09;96511.97;;;2.25;58.62
84022;BME280;74108;48.636;9.492;2024-01-15T10:43:35;96514.09;;;2.28;58.32
84022;BME280;74108;48.636;9.492;2024-01-15T10:46:01;96510.16;;;2.25;59.16
84022;BME280;74108;48.636;9.492;2024-01-15T10:48:26;96509.81;;;2.22;58.73
84022;BME280;74108;48.636;9.492;2024-01-15T10:50:54;96511.94;;;2.36;58.46
84022;BME280;74108;48.636;9.492;2024-01-15T10:53:20;96509.25;;;2.31;59.10
84022;BME280;74108;48.636;9.492;2024-01-15T10:55:47;96500.16;;;2.29;59.66
84022;BME280;74108;48.636;9.492;2024-01-15T10:58:14;96499.59;;;2.38;59.06
84022;BME280;74108;48.636;9.492;2024-01-15T11:00:40;96500.13;;;2.40;58.93
84022;BME280;74108;48.636;9.492;2024-01-15T11:03:06;96497.34;;;2.42;58.06
84022;BME280;74108;48.636;9.492;2024-01-15T11:05:42;96498.47;;;2.46;58.52
84022;BME280;74108;48.636;9.492;2024-01-15T11:08:08;96497.41;;;2.58;58.65
84022;BME280;74108;48.636;9.492;2024-01-15T11:10:47;96481.91;;;2.58;59.34
84022;BME280;74108;48.636;9.492;2024-01-15T11:13:19;96483.25;;;2.49;59.51
84022;BME280;74108;48.636;9.492;2024-01-15T11:16:03;96495.84;;;2.57;59.07
84022;BME280;74108;48.636;9.492;2024-01-15T11:18:30;96493.41;;;2.51;58.69
84022;BME280;74108;48.636;9.492;2024-01-15T11:21:19;96489.44;;;2.60;59.15
84022;BME280;74108;48.636;9.492;2024-01-15T11:23:47;96492.22;;;2.58;59.14
84022;BME280;74108;48.636;9.492;2024-01-15T11:28:55;96484.63;;;2.52;59.49
84022;BME280;74108;48.636;9.492;2024-01-15T11:34:15;96483.09;;;2.28;61.99
84022;BME280;74108;48.636;9.492;2024-01-15T11:42:03;96466.81;;;2.16;62.10
84022;BME280;74108;48.636;9.492;2024-01-15T11:44:29;96455.47;;;2.17;62.76
84022;BME280;74108;48.636;9.492;2024-01-15T11:47:06;96453.34;;;2.25;63.26
84022;BME280;74108;48.636;9.492;2024-01-15T11:52:17;96457.69;;;2.36;62.18
84022;BME280;74108;48.636;9.492;2024-01-15T11:54:50;96446.44;;;2.31;62.00
84022;BME280;74108;48.636;9.492;2024-01-15T11:57:37;96441.28;;;2.31;61.50
84022;BME280;74108;48.636;9.492;2024-01-15T12:00:06;96443.09;;;2.30;62.32
84022;BME280;74108;48.636;9.492;2024-01-15T12:02:34;96438.63;;;2.26;62.43
84022;BME280;74108;48.636;9.492;2024-01-15T12:04:59;96443.09;;;2.30;62.73
84022;BME280;74108;48.636;9.492;2024-01-15T12:07:24;96448.47;;;2.29;62.28
84022;BME280;74108;48.636;9.492;2024-01-15T12:09:50;96453.06;;;2.38;63.24
84022;BME280;74108;48.636;9.492;2024-01-15T12:12:24;96460.53;;;2.23;63.19
84022;BME280;74108;48.636;9.492;2024-01-15T12:14:52;96461.53;;;2.22;64.44
84022;BME280;74108;48.636;9.492;2024-01-15T12:17:17;96456.81;;;2.07;65.96
84022;BME280;74108;48.636;9.492;2024-01-15T12:19:43;96472.44;;;1.89;68.98
84022;BME280;74108;48.636;9.492;2024-01-15T12:22:08;96481.53;;;1.80;71.23
84022;BME280;74108;48.636;9.492;2024-01-15T12:24:34;96473.56;;;1.70;72.09
84022;BME280;74108;48.636;9.492;2024-01-15T12:27:00;96474.81;;;1.68;72.07
84022;BME280;74108;48.636;9.492;2024-01-15T12:29:27;96460.88;;;1.69;71.28
84022;BME280;74108;48.636;9.492;2024-01-15T12:31:53;96478.28;;;1.73;71.29
84022;BME280;74108;48.636;9.492;2024-01-15T12:34:18;96477.47;;;1.84;70.27
84022;BME280;74108;48.636;9.492;2024-01-15T12:36:46;96476.47;;;1.85;70.11
84022;BME280;74108;48.636;9.492;2024-01-15T12:39:13;96480.53;;;1.93;70.00
84022;BME280;74108;48.636;9.492;2024-01-15T12:41:38;96460.19;;;1.85;70.54
84022;BME280;74108;48.636;9.492;2024-01-15T12:44:04;96474.81;;;1.79;71.50
84022;BME280;74108;48.636;9.492;2024-01-15T12:46:30;96491.63;;;1.70;72.52
84022;BME280;74108;48.636;9.492;2024-01-15T12:48:56;96469.41;;;1.69;73.28
84022;BME280;74108;48.636;9.492;2024-01-15T12:51:25;96477.81;;;1.65;73.80
84022;BME280;74108;48.636;9.492;2024-01-15T12:53:51;96474.81;;;1.68;73.17
84022;BME280;74108;48.636;9.492;2024-01-15T12:56:17;96476.34;;;1.69;72.67
84022;BME280;74108;48.636;9.492;2024-01-15T12:58:42;96483.00;;;1.76;72.73
84022;BME280;74108;48.636;9.492;2024-01-15T13:01:07;96465.25;;;1.68;71.91
84022;BME280;74108;48.636;9.492;2024-01-15T13:03:33;96481.53;;;1.80;73.10
84022;BME280;74108;48.636;9.492;2024-01-15T13:05:58;96479.97;;;1.68;76.46
84022;BME280;74108;48.636;9.492;2024-01-15T13:08:35;96490.16;;;1.63;77.25
84022;BME280;74108;48.636;9.492;2024-01-15T13:12:02;96496.09;;;1.52;77.07
84022;BME280;74108;48.636;9.492;2024-01-15T13:14:29;96484.28;;;1.44;78.13
84022;BME280;74108;48.636;9.492;2024-01-15T13:16:57;96494.34;;;1.34;79.95